createdAt,value
2022-09-13T00:01:10.718Z,100546.66
2022-09-13T00:03:37.621Z,100543.72
2022-09-13T00:06:15.249Z,100545.03
2022-09-13T00:08:42.581Z,100535.63
2022-09-13T00:11:21.336Z,100534.00
2022-09-13T00:13:48.344Z,100535.78
2022-09-13T00:16:18.415Z,100527.28
2022-09-13T00:18:48.088Z,100535.53
2022-09-13T00:21:19.430Z,100532.50
2022-09-13T00:23:54.995Z,100532.59
2022-09-13T00:26:28.022Z,100531.47
2022-09-13T00:28:59.100Z,100524.31
2022-09-13T00:31:28.333Z,100524.13
2022-09-13T00:33:59.145Z,100520.66
2022-09-13T00:36:28.310Z,100518.25
2022-09-13T00:38:58.016Z,100512.50
2022-09-13T00:41:24.911Z,100514.69
2022-09-13T00:43:59.002Z,100513.88
2022-09-13T00:46:49.248Z,100505.09
2022-09-13T00:49:22.977Z,100499.34
2022-09-13T00:51:56.789Z,100499.34
2022-09-13T00:54:31.108Z,100503.25
2022-09-13T00:57:01.823Z,100494.41
2022-09-13T00:59:37.804Z,100492.72
2022-09-13T01:02:05.341Z,100480.81
2022-09-13T01:04:38.871Z,100479.78
2022-09-13T01:07:10.313Z,100480.03
2022-09-13T01:09:44.061Z,100483.53
2022-09-13T01:12:31.883Z,100477.94
2022-09-13T01:15:01.181Z,100482.69
2022-09-13T01:17:31.352Z,100471.06
2022-09-13T01:20:01.897Z,100466.56
2022-09-13T01:22:44.337Z,100456.34
2022-09-13T01:25:41.573Z,100456.19
2022-09-13T01:28:45.002Z,100450.97
2022-09-13T01:31:32.354Z,100451.13
2022-09-13T01:34:26.228Z,100447.75
2022-09-13T01:37:38.595Z,100446.59
2022-09-13T01:40:18.328Z,100457.41
2022-09-13T01:42:51.182Z,100470.69
2022-09-13T01:45:22.996Z,100469.00
2022-09-13T01:48:03.413Z,100461.88
2022-09-13T01:50:43.501Z,100475.59
2022-09-13T01:53:55.813Z,100478.16
2022-09-13T01:57:12.262Z,100472.13
2022-09-13T01:59:52.918Z,100471.94
2022-09-13T02:02:28.679Z,100461.63
2022-09-13T02:05:07.832Z,100447.97
2022-09-13T02:07:51.126Z,100447.78
2022-09-13T02:10:27.271Z,100453.22
2022-09-13T02:12:55.526Z,100443.13
2022-09-13T02:15:41.542Z,100456.22
2022-09-13T02:18:33.388Z,100450.63
2022-09-13T02:21:10.285Z,100444.69
2022-09-13T02:24:03.141Z,100434.88
2022-09-13T02:26:31.479Z,100439.53
2022-09-13T02:29:06.718Z,100436.47
2022-09-13T02:32:07.977Z,100444.63
2022-09-13T02:35:05.901Z,100440.53
2022-09-13T02:37:36.530Z,100437.00
2022-09-13T02:40:11.080Z,100429.25
2022-09-13T02:42:52.637Z,100436.94
2022-09-13T02:45:41.467Z,100447.75
2022-09-13T02:48:22.577Z,100444.72
2022-09-13T02:51:19.944Z,100440.25
2022-09-13T02:54:23.475Z,100435.44
2022-09-13T02:57:20.766Z,100421.47
2022-09-13T02:59:49.482Z,100427.88
2022-09-13T03:02:20.243Z,100410.72
2022-09-13T03:04:47.173Z,100403.75
2022-09-13T03:07:15.148Z,100411.63
2022-09-13T03:09:52.275Z,100388.00
2022-09-13T03:12:37.224Z,100379.25
2022-09-13T03:15:36.228Z,100387.81
2022-09-13T03:18:24.213Z,100386.31
2022-09-13T03:21:47.238Z,100379.94
2022-09-13T03:24:25.513Z,100375.53
2022-09-13T03:27:52.346Z,100376.22
2022-09-13T03:30:22.173Z,100369.78
2022-09-13T03:32:58.010Z,100370.44
2022-09-13T03:35:35.012Z,100366.41
2022-09-13T03:38:26.821Z,100364.22
2022-09-13T03:41:15.491Z,100357.13
2022-09-13T03:43:56.320Z,100358.38
2022-09-13T03:46:43.647Z,100353.88
2022-09-13T03:49:18.070Z,100366.03
2022-09-13T03:51:48.897Z,100361.41
2022-09-13T03:54:25.501Z,100367.41
2022-09-13T03:57:18.050Z,100353.63
2022-09-13T03:59:57.574Z,100362.09
2022-09-13T04:02:26.746Z,100361.00
2022-09-13T04:04:56.387Z,100351.22
2022-09-13T04:07:25.160Z,100351.22
2022-09-13T04:09:57.122Z,100352.72
2022-09-13T04:12:24.041Z,100340.34
2022-09-13T04:14:54.091Z,100345.75
2022-09-13T04:17:21.019Z,100340.19
2022-09-13T04:19:47.908Z,100346.38
2022-09-13T04:22:17.557Z,100351.94
2022-09-13T04:24:44.573Z,100345.22
2022-09-13T04:27:12.643Z,100342.22
2022-09-13T04:29:39.564Z,100356.53
2022-09-13T04:32:07.503Z,100360.25
2022-09-13T04:34:34.609Z,100367.59
2022-09-13T04:37:01.540Z,100359.38
2022-09-13T04:39:28.454Z,100363.81
2022-09-13T04:41:58.118Z,100373.78
2022-09-13T04:44:27.191Z,100346.72
2022-09-13T04:46:54.041Z,100351.38
2022-09-13T04:49:23.918Z,100350.75
2022-09-13T04:51:50.774Z,100347.25
2022-09-13T04:54:17.958Z,100343.53
2022-09-13T04:56:47.643Z,100356.63
2022-09-13T04:59:16.976Z,100340.19
2022-09-13T05:01:48.667Z,100346.81
2022-09-13T05:04:15.894Z,100340.16
2022-09-13T05:06:42.803Z,100333.44
2022-09-13T05:09:14.551Z,100336.88
2022-09-13T05:11:44.484Z,100338.19
2022-09-13T05:14:12.377Z,100337.28
2022-09-13T05:16:39.594Z,100338.16
2022-09-13T05:19:10.639Z,100336.75
2022-09-13T05:21:40.177Z,100335.72
2022-09-13T05:24:07.278Z,100348.53
2022-09-13T05:26:36.645Z,100342.84
2022-09-13T05:29:08.186Z,100360.03
2022-09-13T05:31:41.633Z,100361.03
2022-09-13T05:34:12.871Z,100363.16
2022-09-13T05:36:40.672Z,100358.03
2022-09-13T05:39:29.536Z,100358.22
2022-09-13T05:41:59.852Z,100368.63
2022-09-13T05:44:26.761Z,100359.47
2022-09-13T05:46:56.055Z,100362.53
2022-09-13T05:49:22.866Z,100360.59
2022-09-13T05:51:51.901Z,100353.78
2022-09-13T05:54:21.873Z,100353.25
2022-09-13T05:56:52.568Z,100350.53
2022-09-13T05:59:19.422Z,100362.53
2022-09-13T06:01:51.084Z,100369.34
2022-09-13T06:04:18.023Z,100376.09
2022-09-13T06:06:44.875Z,100365.47
2022-09-13T06:09:13.090Z,100364.63
2022-09-13T06:11:40.275Z,100370.72
2022-09-13T06:14:07.420Z,100362.25
2022-09-13T06:16:34.493Z,100369.72
2022-09-13T06:19:01.400Z,100371.56
2022-09-13T06:21:30.445Z,100370.25
2022-09-13T06:23:57.778Z,100359.41
2022-09-13T06:26:31.799Z,100353.47
2022-09-13T06:29:00.862Z,100352.94
2022-09-13T06:31:28.976Z,100360.47
2022-09-13T06:34:02.573Z,100367.94
2022-09-13T06:36:31.669Z,100377.53
2022-09-13T06:39:02.092Z,100367.41
2022-09-13T06:41:29.002Z,100367.00
2022-09-13T06:44:03.324Z,100364.19
2022-09-13T06:46:33.949Z,100373.94
2022-09-13T06:49:04.688Z,100359.47
2022-09-13T06:51:32.884Z,100360.06
2022-09-13T06:54:01.362Z,100370.75
2022-09-13T06:56:32.521Z,100364.50
2022-09-13T06:59:08.397Z,100356.78
2022-09-13T07:01:43.754Z,100369.56
2022-09-13T07:04:21.551Z,100378.53
2022-09-13T07:06:49.862Z,100392.47
2022-09-13T07:09:22.209Z,100388.66
2022-09-13T07:11:52.709Z,100383.41
2022-09-13T07:14:28.087Z,100385.25
2022-09-13T07:16:56.006Z,100384.09
2022-09-13T07:19:27.907Z,100388.06
2022-09-13T07:21:58.330Z,100382.38
2022-09-13T07:24:27.883Z,100380.00
2022-09-13T07:26:54.684Z,100369.88
2022-09-13T07:29:25.769Z,100359.47
2022-09-13T07:31:58.571Z,100357.34
2022-09-13T07:34:26.946Z,100364.78
2022-09-13T07:36:56.436Z,100360.72
2022-09-13T07:39:25.837Z,100371.84
2022-09-13T07:41:53.797Z,100370.03
2022-09-13T07:44:20.869Z,100378.47
2022-09-13T07:46:47.704Z,100384.69
2022-09-13T07:49:21.320Z,100382.06
2022-09-13T07:51:51.232Z,100385.78
2022-09-13T07:54:20.160Z,100392.72
2022-09-13T07:56:50.251Z,100393.03
2022-09-13T07:59:19.018Z,100405.50
2022-09-13T08:01:51.122Z,100397.00
2022-09-13T08:04:23.078Z,100399.00
2022-09-13T08:06:50.008Z,100396.78
2022-09-13T08:09:17.275Z,100395.03
2022-09-13T08:11:57.258Z,100405.84
2022-09-13T08:14:24.585Z,100397.13
2022-09-13T08:16:55.646Z,100396.22
2022-09-13T08:19:22.564Z,100395.09
2022-09-13T08:21:51.981Z,100398.91
2022-09-13T08:24:24.781Z,100400.13
2022-09-13T08:26:55.124Z,100407.63
2022-09-13T08:29:27.650Z,100405.00
2022-09-13T08:31:56.732Z,100402.53
2022-09-13T08:34:25.923Z,100409.72
2022-09-13T08:36:52.813Z,100419.69
2022-09-13T08:39:19.682Z,100411.19
2022-09-13T08:42:50.290Z,100401.72
2022-09-13T08:45:19.670Z,100411.69
2022-09-13T08:48:20.967Z,100407.91
2022-09-13T08:50:52.316Z,100414.63
2022-09-13T08:53:29.716Z,100416.25
2022-09-13T08:56:13.492Z,100407.91
2022-09-13T08:59:01.239Z,100420.06
2022-09-13T09:02:04.715Z,100415.72
2022-09-13T09:05:06.881Z,100422.31
2022-09-13T09:07:41.141Z,100422.38
2022-09-13T09:10:19.946Z,100423.09
2022-09-13T09:12:58.280Z,100427.34
2022-09-13T09:15:30.008Z,100418.84
2022-09-13T09:18:06.364Z,100406.22
2022-09-13T09:20:44.770Z,100409.06
2022-09-13T09:23:22.305Z,100409.78
2022-09-13T09:25:56.336Z,100411.25
2022-09-13T09:28:23.182Z,100418.69
2022-09-13T09:31:05.503Z,100409.25
2022-09-13T09:34:18.422Z,100404.63
2022-09-13T09:37:03.447Z,100407.13
2022-09-13T09:39:39.315Z,100403.50
2022-09-13T09:42:20.443Z,100415.25
2022-09-13T09:44:52.168Z,100410.25
2022-09-13T09:47:28.536Z,100416.06
2022-09-13T09:50:11.950Z,100427.66
2022-09-13T09:52:44.859Z,100411.03
2022-09-13T09:55:31.567Z,100425.84
2022-09-13T09:58:00.670Z,100429.75
2022-09-13T10:00:32.188Z,100427.81
2022-09-13T10:03:17.388Z,100428.59
2022-09-13T10:05:45.956Z,100422.44
2022-09-13T10:08:47.670Z,100420.16
2022-09-13T10:11:17.019Z,100411.06
2022-09-13T10:14:34.879Z,100412.19
2022-09-13T10:17:26.696Z,100415.88
2022-09-13T10:20:27.964Z,100411.34
2022-09-13T10:23:14.398Z,100404.59
2022-09-13T10:25:47.856Z,100403.59
2022-09-13T10:28:24.278Z,100413.84
2022-09-13T10:31:18.159Z,100404.59
2022-09-13T10:33:59.999Z,100404.25
2022-09-13T10:36:52.503Z,100403.59
2022-09-13T10:39:23.165Z,100407.03
2022-09-13T10:42:05.871Z,100399.59
2022-09-13T10:45:19.480Z,100400.66
2022-09-13T10:47:51.911Z,100409.25
2022-09-13T10:50:26.099Z,100398.06
2022-09-13T10:52:55.835Z,100411.66
2022-09-13T10:55:22.645Z,100415.63
2022-09-13T10:57:55.354Z,100410.91
2022-09-13T11:01:01.375Z,100406.50
2022-09-13T11:04:25.227Z,100412.63
2022-09-13T11:07:17.034Z,100413.56
2022-09-13T11:10:02.672Z,100401.38
2022-09-13T11:13:06.261Z,100404.00
2022-09-13T11:15:39.072Z,100402.94
2022-09-13T11:18:20.759Z,100398.00
2022-09-13T11:21:14.028Z,100395.53
2022-09-13T11:23:59.579Z,100394.94
2022-09-13T11:26:38.715Z,100385.31
2022-09-13T11:29:23.714Z,100376.91
2022-09-13T11:32:32.423Z,100383.53
2022-09-13T11:35:17.421Z,100395.19
2022-09-13T11:38:21.149Z,100395.72
2022-09-13T11:41:28.229Z,100385.06
2022-09-13T11:44:13.360Z,100382.09
2022-09-13T11:47:01.165Z,100374.34
2022-09-13T11:49:53.809Z,100370.53
2022-09-13T11:52:50.175Z,100366.22
2022-09-13T11:55:33.844Z,100370.94
2022-09-13T11:58:06.011Z,100358.09
2022-09-13T12:00:57.574Z,100366.47
2022-09-13T12:03:39.794Z,100362.09
2022-09-13T12:06:16.094Z,100361.19
2022-09-13T12:08:54.609Z,100363.38
2022-09-13T12:11:43.846Z,100360.38
2022-09-13T12:14:22.435Z,100361.88
2022-09-13T12:17:04.709Z,100362.53
2022-09-13T12:19:46.598Z,100362.31
2022-09-13T12:22:20.527Z,100356.81
2022-09-13T12:24:52.316Z,100366.66
2022-09-13T12:28:11.230Z,100352.16
2022-09-13T12:30:47.615Z,100352.47
2022-09-13T12:33:16.332Z,100352.13
2022-09-13T12:36:01.284Z,100359.69
2022-09-13T12:38:56.389Z,100359.81
2022-09-13T12:41:50.297Z,100362.63
2022-09-13T12:44:38.604Z,100367.22
2022-09-13T12:47:24.159Z,100367.63
2022-09-13T12:50:43.029Z,100361.56
2022-09-13T12:54:02.570Z,100357.94
2022-09-13T12:56:56.873Z,100360.28
2022-09-13T12:59:56.659Z,100366.28
2022-09-13T13:03:11.826Z,100354.63
2022-09-13T13:06:08.908Z,100342.69
2022-09-13T13:08:36.022Z,100355.09
2022-09-13T13:11:12.678Z,100360.34
2022-09-13T13:13:44.162Z,100358.72
2022-09-13T13:16:40.660Z,100354.22
2022-09-13T13:19:36.974Z,100355.94
2022-09-13T13:22:44.404Z,100356.47
2022-09-13T13:25:33.676Z,100352.84
2022-09-13T13:28:00.660Z,100355.06
2022-09-13T13:30:56.313Z,100351.66
2022-09-13T13:33:28.841Z,100353.91
2022-09-13T13:35:55.853Z,100347.03
2022-09-13T13:38:31.386Z,100348.06
2022-09-13T13:41:33.191Z,100357.69
2022-09-13T13:44:20.491Z,100355.66
2022-09-13T13:46:53.046Z,100340.06
2022-09-13T13:49:32.208Z,100355.59
2022-09-13T13:52:10.908Z,100349.09
2022-09-13T13:54:47.458Z,100336.72
2022-09-13T13:57:38.732Z,100339.47
2022-09-13T14:00:21.307Z,100344.75
2022-09-13T14:02:53.320Z,100331.63
2022-09-13T14:05:34.167Z,100331.88
2022-09-13T14:08:37.482Z,100334.91
2022-09-13T14:11:52.283Z,100339.75
2022-09-13T14:14:57.792Z,100348.03
2022-09-13T14:17:59.425Z,100328.91
2022-09-13T14:20:26.666Z,100351.56
2022-09-13T14:23:18.907Z,100349.50
2022-09-13T14:25:49.143Z,100347.91
2022-09-13T14:28:21.743Z,100345.22
2022-09-13T14:30:53.824Z,100356.81
2022-09-13T14:33:33.003Z,100347.81
2022-09-13T14:36:06.302Z,100348.53
2022-09-13T14:38:37.060Z,100348.56
2022-09-13T14:41:35.541Z,100347.78
2022-09-13T14:44:28.411Z,100328.88
2022-09-13T14:47:05.612Z,100333.81
2022-09-13T14:49:40.288Z,100335.34
2022-09-13T14:52:31.565Z,100328.06
2022-09-13T14:55:04.428Z,100318.06
2022-09-13T14:57:38.977Z,100304.47
2022-09-13T15:00:25.704Z,100312.75
2022-09-13T15:03:02.890Z,100312.78
2022-09-13T15:05:36.611Z,100306.97
2022-09-13T15:08:34.860Z,100311.53
2022-09-13T15:11:07.909Z,100309.84
2022-09-13T15:13:38.429Z,100320.66
2022-09-13T15:16:31.884Z,100319.41
2022-09-13T15:19:23.988Z,100314.78
2022-09-13T15:22:03.458Z,100325.16
2022-09-13T15:24:33.957Z,100320.06
2022-09-13T15:27:31.585Z,100316.75
2022-09-13T15:30:06.040Z,100315.38
2022-09-13T15:32:44.150Z,100321.53
2022-09-13T15:35:34.403Z,100313.00
2022-09-13T15:38:23.350Z,100311.97
2022-09-13T15:41:01.772Z,100315.97
2022-09-13T15:43:32.132Z,100315.78
2022-09-13T15:46:01.481Z,100324.69
2022-09-13T15:48:37.432Z,100322.22
2022-09-13T15:51:17.523Z,100316.69
2022-09-13T15:53:46.602Z,100321.41
2022-09-13T15:56:20.853Z,100323.06
2022-09-13T15:58:50.477Z,100321.97
2022-09-13T16:01:22.137Z,100328.91
2022-09-13T16:03:51.408Z,100329.19
2022-09-13T16:06:24.819Z,100329.69
2022-09-13T16:08:51.778Z,100339.34
2022-09-13T16:11:18.690Z,100343.47
2022-09-13T16:13:45.732Z,100336.22
2022-09-13T16:16:24.362Z,100333.09
2022-09-13T16:18:53.847Z,100338.88
2022-09-13T16:21:20.721Z,100340.50
2022-09-13T16:23:47.542Z,100348.09
2022-09-13T16:26:14.467Z,100345.59
2022-09-13T16:28:43.703Z,100345.19
2022-09-13T16:31:10.620Z,100344.25
2022-09-13T16:33:37.523Z,100352.53
2022-09-13T16:36:04.544Z,100350.22
2022-09-13T16:38:31.386Z,100343.28
2022-09-13T16:41:00.723Z,100343.25
2022-09-13T16:43:33.097Z,100345.31
2022-09-13T16:46:10.046Z,100353.47
2022-09-13T16:48:37.527Z,100349.31
2022-09-13T16:51:08.114Z,100354.56
2022-09-13T16:53:37.854Z,100348.06
2022-09-13T16:56:06.977Z,100358.72
2022-09-13T16:58:40.529Z,100340.56
2022-09-13T17:01:13.622Z,100360.03
2022-09-13T17:03:40.836Z,100361.75
2022-09-13T17:06:15.089Z,100363.75
2022-09-13T17:08:53.201Z,100365.03
2022-09-13T17:11:24.727Z,100362.28
2022-09-13T17:13:52.545Z,100366.78
2022-09-13T17:16:27.718Z,100370.66
2022-09-13T17:18:57.370Z,100365.72
2022-09-13T17:21:28.688Z,100374.84
2022-09-13T17:23:56.239Z,100376.25
2022-09-13T17:26:23.582Z,100375.94
2022-09-13T17:28:52.591Z,100380.84
2022-09-13T17:31:20.402Z,100386.63
2022-09-13T17:33:47.399Z,100389.91
2022-09-13T17:36:17.299Z,100391.50
2022-09-13T17:38:44.377Z,100383.22
2022-09-13T17:41:16.256Z,100385.38
2022-09-13T17:43:47.069Z,100382.00
2022-09-13T17:46:23.258Z,100385.84
2022-09-13T17:48:52.770Z,100386.66
2022-09-13T17:51:25.641Z,100384.31
2022-09-13T17:54:00.966Z,100381.84
2022-09-13T17:56:41.530Z,100383.22
2022-09-13T17:59:22.718Z,100390.06
2022-09-13T18:01:57.905Z,100377.78
2022-09-13T18:04:29.527Z,100386.19
2022-09-13T18:06:59.432Z,100387.59
2022-09-13T18:09:29.914Z,100396.84
2022-09-13T18:11:57.744Z,100393.88
2022-09-13T18:14:26.664Z,100390.97
2022-09-13T18:16:55.843Z,100394.09
2022-09-13T18:19:45.260Z,100395.06
2022-09-13T18:22:13.949Z,100400.50
2022-09-13T18:24:47.837Z,100401.09
2022-09-13T18:27:16.769Z,100400.13
2022-09-13T18:29:48.526Z,100402.28
2022-09-13T18:32:19.929Z,100399.91
2022-09-13T18:34:49.861Z,100415.91
2022-09-13T18:37:16.740Z,100420.59
2022-09-13T18:39:43.667Z,100422.97
2022-09-13T18:42:12.973Z,100409.78
2022-09-13T18:44:39.908Z,100419.47
2022-09-13T18:47:12.981Z,100410.03
2022-09-13T18:49:42.876Z,100414.94
2022-09-13T18:52:11.148Z,100419.13
2022-09-13T18:54:38.850Z,100411.56
2022-09-13T18:57:08.640Z,100408.91
2022-09-13T18:59:40.105Z,100418.69
2022-09-13T19:02:07.217Z,100413.41
2022-09-13T19:04:36.931Z,100416.28
2022-09-13T19:07:07.140Z,100412.56
2022-09-13T19:09:35.735Z,100408.34
2022-09-13T19:12:05.702Z,100410.81
2022-09-13T19:14:33.143Z,100413.69
2022-09-13T19:17:04.582Z,100412.09
2022-09-13T19:19:35.583Z,100413.66
2022-09-13T19:22:02.515Z,100409.06
2022-09-13T19:24:29.413Z,100401.38
2022-09-13T19:27:01.539Z,100395.00
2022-09-13T19:29:28.814Z,100403.69
2022-09-13T19:31:59.456Z,100403.34
2022-09-13T19:34:39.589Z,100400.78
2022-09-13T19:37:08.785Z,100400.13
2022-09-13T19:39:38.776Z,100393.19
2022-09-13T19:42:09.221Z,100387.53
2022-09-13T19:44:44.267Z,100385.84
2022-09-13T19:49:58.969Z,100377.94
2022-09-13T19:52:31.722Z,100376.03
2022-09-13T19:54:59.691Z,100383.22
2022-09-13T19:57:31.705Z,100382.78
2022-09-13T19:59:58.689Z,100379.84
2022-09-13T20:02:27.740Z,100384.75
2022-09-13T20:04:56.872Z,100380.31
2022-09-13T20:07:24.746Z,100385.06
2022-09-13T20:09:52.531Z,100390.56
2022-09-13T20:12:21.730Z,100389.72
2022-09-13T20:14:48.599Z,100380.81
2022-09-13T20:17:15.494Z,100385.00
2022-09-13T20:19:47.641Z,100387.66
2022-09-13T20:22:22.084Z,100392.38
2022-09-13T20:24:48.995Z,100385.22
2022-09-13T20:27:16.182Z,100382.09
2022-09-13T20:29:47.729Z,100391.78
2022-09-13T20:32:20.717Z,100385.88
2022-09-13T20:34:49.882Z,100390.56
2022-09-13T20:37:19.746Z,100388.22
2022-09-13T20:39:47.242Z,100378.38
2022-09-13T20:42:19.181Z,100372.00
2022-09-13T20:44:46.316Z,100377.94
2022-09-13T20:47:13.420Z,100372.38
2022-09-13T20:49:42.897Z,100367.91
2022-09-13T20:52:09.788Z,100373.13
2022-09-13T20:54:36.554Z,100371.72
2022-09-13T20:57:03.474Z,100371.72
2022-09-13T20:59:30.338Z,100359.91
2022-09-13T21:01:59.562Z,100370.44
2022-09-13T21:04:26.755Z,100368.81
2022-09-13T21:07:14.942Z,100372.50
2022-09-13T21:09:43.270Z,100370.88
2022-09-13T21:12:12.147Z,100362.44
2022-09-13T21:14:42.039Z,100371.94
2022-09-13T21:17:09.264Z,100354.31
2022-09-13T21:19:36.174Z,100365.00
2022-09-13T21:22:03.465Z,100370.94
2022-09-13T21:24:34.979Z,100354.56
2022-09-13T21:27:02.151Z,100359.97
2022-09-13T21:29:31.389Z,100364.09
2022-09-13T21:31:58.244Z,100359.84
2022-09-13T21:34:27.473Z,100358.34
2022-09-13T21:36:54.740Z,100363.22
2022-09-13T21:39:21.578Z,100360.97
2022-09-13T21:41:48.377Z,100355.91
2022-09-13T21:44:16.833Z,100359.59
2022-09-13T21:46:46.452Z,100351.06
2022-09-13T21:49:13.753Z,100354.72
2022-09-13T21:51:50.259Z,100357.78
2022-09-13T21:54:19.426Z,100348.03
2022-09-13T21:56:54.705Z,100342.09
2022-09-13T21:59:26.666Z,100351.69
2022-09-13T22:01:56.529Z,100348.72
2022-09-13T22:04:27.954Z,100340.22
2022-09-13T22:06:57.390Z,100336.88
2022-09-13T22:09:29.189Z,100341.28
2022-09-13T22:11:59.031Z,100337.19
2022-09-13T22:14:26.618Z,100333.22
2022-09-13T22:16:53.884Z,100334.59
2022-09-13T22:19:26.730Z,100332.53
2022-09-13T22:21:59.186Z,100339.41
2022-09-13T22:24:33.364Z,100335.88
2022-09-13T22:27:00.650Z,100340.81
2022-09-13T22:29:30.084Z,100336.44
2022-09-13T22:31:57.081Z,100334.28
2022-09-13T22:34:25.655Z,100330.41
2022-09-13T22:36:55.605Z,100335.66
2022-09-13T22:39:23.872Z,100338.88
2022-09-13T22:41:51.114Z,100341.75
2022-09-13T22:44:18.082Z,100331.78
2022-09-13T22:46:46.632Z,100338.78
2022-09-13T22:49:18.710Z,100339.78
2022-09-13T22:51:47.642Z,100339.16
2022-09-13T22:54:16.493Z,100342.06
2022-09-13T22:56:44.257Z,100339.00
2022-09-13T22:59:20.742Z,100338.56
2022-09-13T23:01:50.985Z,100338.66
2022-09-13T23:04:17.853Z,100335.06
2022-09-13T23:06:47.617Z,100339.31
2022-09-13T23:09:18.136Z,100341.13
2022-09-13T23:11:48.621Z,100344.19
2022-09-13T23:14:20.021Z,100339.19
2022-09-13T23:16:50.542Z,100351.84
2022-09-13T23:19:20.483Z,100339.50
2022-09-13T23:21:52.411Z,100337.72
2022-09-13T23:24:19.760Z,100333.22
2022-09-13T23:26:49.767Z,100343.13
2022-09-13T23:29:19.414Z,100346.53
2022-09-13T23:31:47.669Z,100333.53
2022-09-13T23:34:16.474Z,100333.28
2022-09-13T23:36:44.860Z,100340.81
2022-09-13T23:39:21.834Z,100334.44
2022-09-13T23:41:50.656Z,100339.94
2022-09-13T23:44:20.509Z,100333.25
2022-09-13T23:46:47.472Z,100328.56
2022-09-13T23:49:19.992Z,100329.63
2022-09-13T23:51:49.710Z,100333.69
2022-09-13T23:54:16.761Z,100321.88
2022-09-13T23:56:46.471Z,100321.84
2022-09-13T23:59:14.186Z,100322.38
